createdAt,value
2017-10-15T00:00:07.774Z,14.40
2017-10-15T00:02:37.309Z,14.40
2017-10-15T00:05:07.326Z,14.30
2017-10-15T00:07:37.031Z,14.30
2017-10-15T00:10:06.094Z,14.30
2017-10-15T00:12:34.985Z,14.30
2017-10-15T00:15:04.538Z,14.30
2017-10-15T00:17:33.574Z,14.30
2017-10-15T00:20:02.968Z,14.30
2017-10-15T00:22:31.908Z,14.20
2017-10-15T00:25:01.518Z,14.20
2017-10-15T00:27:31.153Z,14.20
2017-10-15T00:29:59.926Z,14.20
2017-10-15T00:32:28.758Z,14.20
2017-10-15T00:34:58.164Z,14.20
2017-10-15T00:37:27.233Z,14.10
2017-10-15T00:39:56.059Z,14.10
2017-10-15T00:42:25.134Z,14.10
2017-10-15T00:44:54.126Z,14.10
2017-10-15T00:47:23.734Z,14.10
2017-10-15T00:49:52.604Z,14.00
2017-10-15T00:52:21.493Z,14.00
2017-10-15T00:54:50.714Z,14.00
2017-10-15T00:57:19.756Z,14.00
2017-10-15T00:59:48.718Z,14.00
2017-10-15T01:02:18.556Z,14.00
2017-10-15T01:04:47.598Z,14.00
2017-10-15T01:07:16.776Z,13.90
2017-10-15T01:09:45.718Z,14.00
2017-10-15T01:12:15.999Z,13.90
2017-10-15T01:14:45.151Z,13.90
2017-10-15T01:17:14.506Z,13.90
2017-10-15T01:19:43.423Z,13.90
2017-10-15T01:22:13.158Z,13.80
2017-10-15T01:24:42.109Z,13.80
2017-10-15T01:27:11.057Z,13.80
2017-10-15T01:29:40.447Z,13.80
2017-10-15T01:32:09.489Z,13.80
2017-10-15T01:34:38.321Z,13.70
2017-10-15T01:37:07.283Z,13.70
2017-10-15T01:39:37.562Z,13.70
2017-10-15T01:42:07.468Z,13.70
2017-10-15T01:44:36.626Z,13.70
2017-10-15T01:47:05.859Z,13.70
2017-10-15T01:49:34.946Z,13.60
2017-10-15T01:52:04.186Z,13.60
2017-10-15T01:54:33.398Z,13.60
2017-10-15T01:57:03.054Z,13.50
2017-10-15T01:59:32.465Z,13.50
2017-10-15T02:02:01.257Z,13.50
2017-10-15T02:04:30.161Z,13.50
2017-10-15T02:06:58.965Z,13.40
2017-10-15T02:09:28.572Z,13.40
2017-10-15T02:11:58.611Z,13.40
2017-10-15T02:14:27.548Z,13.40
2017-10-15T02:16:56.378Z,13.30
2017-10-15T02:19:26.420Z,13.30
2017-10-15T02:21:55.206Z,13.30
2017-10-15T02:24:24.130Z,13.30
2017-10-15T02:26:53.158Z,13.20
2017-10-15T02:29:22.970Z,13.20
2017-10-15T02:31:53.158Z,13.10
2017-10-15T02:34:22.001Z,13.10
2017-10-15T02:36:50.785Z,13.10
2017-10-15T02:39:19.626Z,13.10
2017-10-15T02:41:48.673Z,13.10
2017-10-15T02:44:18.108Z,13.10
2017-10-15T02:46:47.233Z,13.00
2017-10-15T02:49:17.146Z,12.90
2017-10-15T02:51:47.386Z,12.80
2017-10-15T02:54:17.230Z,12.80
2017-10-15T02:56:46.070Z,12.80
2017-10-15T02:59:15.636Z,12.80
2017-10-15T03:01:44.762Z,12.70
2017-10-15T03:04:14.222Z,12.80
2017-10-15T03:06:43.175Z,12.80
2017-10-15T03:09:12.821Z,12.80
2017-10-15T03:11:41.761Z,12.70
2017-10-15T03:14:11.466Z,12.70
2017-10-15T03:16:41.133Z,12.70
2017-10-15T03:19:10.143Z,12.60
2017-10-15T03:21:39.210Z,12.60
2017-10-15T03:24:08.341Z,12.60
2017-10-15T03:26:37.570Z,12.60
2017-10-15T03:29:06.371Z,12.60
2017-10-15T03:31:35.231Z,12.70
2017-10-15T03:34:05.307Z,12.60
2017-10-15T03:36:34.163Z,12.60
2017-10-15T03:39:03.025Z,12.70
2017-10-15T03:41:32.605Z,12.70
2017-10-15T03:44:01.485Z,12.60
2017-10-15T03:46:30.637Z,12.60
2017-10-15T03:48:59.636Z,12.60
2017-10-15T03:51:29.145Z,12.60
2017-10-15T03:53:58.134Z,12.60
2017-10-15T03:56:27.197Z,12.50
2017-10-15T03:58:57.094Z,12.50
2017-10-15T04:01:26.107Z,12.50
2017-10-15T04:03:55.272Z,12.50
2017-10-15T04:06:24.178Z,12.40
2017-10-15T04:08:53.249Z,12.40
2017-10-15T04:11:22.199Z,12.40
2017-10-15T04:13:51.245Z,12.40
2017-10-15T04:16:20.773Z,12.40
2017-10-15T04:18:50.446Z,12.40
2017-10-15T04:21:19.483Z,12.40
2017-10-15T04:23:49.038Z,12.40
2017-10-15T04:26:18.124Z,12.40
2017-10-15T04:28:47.567Z,12.50
2017-10-15T04:31:17.329Z,12.40
2017-10-15T04:33:46.170Z,12.30
2017-10-15T04:36:15.947Z,12.30
2017-10-15T04:38:45.496Z,12.30
2017-10-15T04:41:15.153Z,12.30
2017-10-15T04:43:44.200Z,12.30
2017-10-15T04:46:13.256Z,12.30
2017-10-15T04:48:42.298Z,12.30
2017-10-15T04:51:11.314Z,12.30
2017-10-15T04:53:40.412Z,12.30
2017-10-15T04:56:09.433Z,12.30
2017-10-15T04:58:39.776Z,12.20
2017-10-15T05:01:09.250Z,12.20
2017-10-15T05:03:38.355Z,12.30
2017-10-15T05:06:07.740Z,12.20
2017-10-15T05:08:36.734Z,12.20
2017-10-15T05:11:06.564Z,12.10
2017-10-15T05:13:35.430Z,12.10
2017-10-15T05:16:04.205Z,12.10
2017-10-15T05:18:33.064Z,12.10
2017-10-15T05:21:02.092Z,12.10
2017-10-15T05:23:31.406Z,12.10
2017-10-15T05:26:00.434Z,12.00
2017-10-15T05:28:29.474Z,12.00
2017-10-15T05:30:58.769Z,12.00
2017-10-15T05:33:27.938Z,12.00
2017-10-15T05:35:57.096Z,12.00
2017-10-15T05:38:27.013Z,12.00
2017-10-15T05:40:57.286Z,12.00
2017-10-15T05:43:26.141Z,12.00
2017-10-15T05:45:55.029Z,12.00
2017-10-15T05:48:23.907Z,12.00
2017-10-15T05:50:53.001Z,12.00
2017-10-15T05:53:22.954Z,12.00
2017-10-15T05:55:51.846Z,11.90
2017-10-15T05:58:20.769Z,11.90
2017-10-15T06:00:49.682Z,12.00
2017-10-15T06:03:19.373Z,11.90
2017-10-15T06:05:49.260Z,11.90
2017-10-15T06:08:18.378Z,11.90
2017-10-15T06:10:47.664Z,11.90
2017-10-15T06:13:16.545Z,12.00
2017-10-15T06:15:45.452Z,12.00
2017-10-15T06:18:14.909Z,11.90
2017-10-15T06:20:44.065Z,12.00
2017-10-15T06:23:13.478Z,12.00
2017-10-15T06:25:43.192Z,12.10
2017-10-15T06:28:12.841Z,12.20
2017-10-15T06:30:41.685Z,12.20
2017-10-15T06:33:11.272Z,12.30
2017-10-15T06:35:41.435Z,12.40
2017-10-15T06:38:10.330Z,12.40
2017-10-15T06:40:39.250Z,12.50
2017-10-15T06:43:08.744Z,12.60
2017-10-15T06:45:37.791Z,12.60
2017-10-15T06:48:06.866Z,12.70
2017-10-15T06:50:36.690Z,12.90
2017-10-15T06:53:06.716Z,13.00
2017-10-15T06:55:35.626Z,13.00
2017-10-15T06:58:04.421Z,13.10
2017-10-15T07:00:33.244Z,13.20
2017-10-15T07:03:02.109Z,13.20
2017-10-15T07:05:31.397Z,13.30
2017-10-15T07:08:00.280Z,13.40
2017-10-15T07:10:29.116Z,13.40
2017-10-15T07:12:58.016Z,13.50
2017-10-15T07:15:27.671Z,13.70
2017-10-15T07:17:56.974Z,13.70
2017-10-15T07:20:26.078Z,13.80
2017-10-15T07:22:54.987Z,13.80
2017-10-15T07:25:24.334Z,13.90
2017-10-15T07:27:53.557Z,14.00
2017-10-15T07:30:22.930Z,14.10
2017-10-15T07:32:51.845Z,14.20
2017-10-15T07:35:20.761Z,14.30
2017-10-15T07:37:50.041Z,14.30
2017-10-15T07:40:19.166Z,14.50
2017-10-15T07:42:48.686Z,14.60
2017-10-15T07:45:18.456Z,14.70
2017-10-15T07:47:47.514Z,14.70
2017-10-15T07:50:16.593Z,14.80
2017-10-15T07:52:46.334Z,15.30
2017-10-15T07:55:15.262Z,15.30
2017-10-15T07:57:44.998Z,15.70
2017-10-15T08:00:15.260Z,15.60
2017-10-15T08:02:46.463Z,15.80
2017-10-15T08:05:18.035Z,16.20
2017-10-15T08:07:50.778Z,16.10
2017-10-15T08:10:23.533Z,16.30
2017-10-15T08:12:56.805Z,16.30
2017-10-15T08:15:29.804Z,16.40
2017-10-15T08:18:01.103Z,16.60
2017-10-15T08:20:31.194Z,16.70
2017-10-15T08:23:00.234Z,16.60
2017-10-15T08:25:29.313Z,16.80
2017-10-15T08:27:58.357Z,16.80
2017-10-15T08:30:27.624Z,16.90
2017-10-15T08:32:56.602Z,16.90
2017-10-15T08:35:25.659Z,16.90
2017-10-15T08:37:55.048Z,17.00
2017-10-15T08:40:24.129Z,17.10
2017-10-15T08:42:54.152Z,17.30
2017-10-15T08:45:23.356Z,17.30
2017-10-15T08:47:52.450Z,17.40
2017-10-15T08:50:22.549Z,17.50
2017-10-15T08:52:51.681Z,17.60
2017-10-15T08:55:21.306Z,17.80
2017-10-15T08:57:50.226Z,17.70
2017-10-15T09:00:19.371Z,17.90
2017-10-15T09:02:49.023Z,18.30
2017-10-15T09:05:19.360Z,18.30
2017-10-15T09:07:48.452Z,18.50
2017-10-15T09:10:17.369Z,18.70
2017-10-15T09:12:46.230Z,19.00
2017-10-15T09:15:15.308Z,19.20
2017-10-15T09:17:44.445Z,19.30
2017-10-15T09:20:13.918Z,19.50
2017-10-15T09:22:43.005Z,19.70
2017-10-15T09:25:11.862Z,19.90
2017-10-15T09:27:41.462Z,20.10
2017-10-15T09:30:10.566Z,20.20
2017-10-15T09:32:40.095Z,20.40
2017-10-15T09:35:09.070Z,20.50
2017-10-15T09:37:37.958Z,20.60
2017-10-15T09:40:07.223Z,20.80
2017-10-15T09:42:36.849Z,21.00
2017-10-15T09:45:06.511Z,21.20
2017-10-15T09:47:35.627Z,21.10
2017-10-15T09:50:04.665Z,21.30
2017-10-15T09:52:33.776Z,21.40
2017-10-15T09:55:02.685Z,21.60
2017-10-15T09:57:31.624Z,21.60
2017-10-15T10:00:00.454Z,21.80
2017-10-15T10:02:29.435Z,21.90
2017-10-15T10:04:58.916Z,22.00
2017-10-15T10:07:27.967Z,22.10
2017-10-15T10:09:56.952Z,22.30
2017-10-15T10:12:26.343Z,22.30
2017-10-15T10:14:55.331Z,22.60
2017-10-15T10:17:24.294Z,22.60
2017-10-15T10:19:53.311Z,22.70
2017-10-15T10:22:22.733Z,23.00
2017-10-15T10:24:51.726Z,22.90
2017-10-15T10:27:20.772Z,22.90
2017-10-15T10:29:49.937Z,23.10
2017-10-15T10:32:19.519Z,23.20
2017-10-15T10:34:48.817Z,23.20
2017-10-15T10:37:17.655Z,23.50
2017-10-15T10:39:46.465Z,23.70
2017-10-15T10:42:15.355Z,24.00
2017-10-15T10:44:44.409Z,24.30
2017-10-15T10:47:15.345Z,24.60
2017-10-15T10:49:46.931Z,24.60
2017-10-15T10:52:22.621Z,24.60
2017-10-15T10:54:52.967Z,24.80
2017-10-15T10:57:22.764Z,24.90
2017-10-15T11:02:26.849Z,25.10
2017-10-15T11:04:55.674Z,25.20
2017-10-15T11:07:24.899Z,25.30
2017-10-15T11:09:54.464Z,25.70
2017-10-15T11:12:23.322Z,25.60
2017-10-15T11:14:52.156Z,25.70
2017-10-15T11:17:20.966Z,25.80
2017-10-15T11:19:50.560Z,25.70
2017-10-15T11:22:21.088Z,25.80
2017-10-15T11:24:51.105Z,26.00
2017-10-15T11:27:20.927Z,26.10
2017-10-15T11:29:50.699Z,25.90
2017-10-15T11:32:19.645Z,25.90
2017-10-15T11:34:48.613Z,26.00
2017-10-15T11:37:18.829Z,25.90
2017-10-15T11:39:48.725Z,26.00
2017-10-15T11:42:17.949Z,26.00
2017-10-15T11:44:47.765Z,25.90
2017-10-15T11:47:18.663Z,25.80
2017-10-15T11:49:49.353Z,25.70
2017-10-15T11:52:18.254Z,25.70
2017-10-15T11:54:47.089Z,25.70
2017-10-15T11:57:16.190Z,25.30
2017-10-15T11:59:46.198Z,25.30
2017-10-15T12:02:15.240Z,25.20
2017-10-15T12:04:44.266Z,24.90
2017-10-15T12:07:13.851Z,24.80
2017-10-15T12:09:42.829Z,24.90
2017-10-15T12:12:11.807Z,24.90
2017-10-15T12:14:41.437Z,24.80
2017-10-15T12:17:11.072Z,24.80
2017-10-15T12:19:40.589Z,24.60
2017-10-15T12:22:09.936Z,24.30
2017-10-15T12:24:38.834Z,24.10
2017-10-15T12:27:08.156Z,24.00
2017-10-15T12:29:37.296Z,24.00
2017-10-15T12:32:06.881Z,24.00
2017-10-15T12:34:36.831Z,23.80
2017-10-15T12:37:05.918Z,23.80
2017-10-15T12:39:35.171Z,23.80
2017-10-15T12:42:04.206Z,23.80
2017-10-15T12:44:33.960Z,23.60
2017-10-15T12:47:03.034Z,23.60
2017-10-15T12:49:32.065Z,23.60
2017-10-15T12:52:01.343Z,23.60
2017-10-15T12:54:30.381Z,23.60
2017-10-15T12:57:00.060Z,23.60
2017-10-15T12:59:29.074Z,23.50
2017-10-15T13:04:26.893Z,23.90
2017-10-15T13:06:55.887Z,23.90
2017-10-15T13:09:25.163Z,24.00
2017-10-15T13:11:53.985Z,24.00
2017-10-15T13:14:23.055Z,24.10
2017-10-15T13:16:52.195Z,24.10
2017-10-15T13:19:21.221Z,23.90
2017-10-15T13:21:51.363Z,23.80
2017-10-15T13:24:35.907Z,23.80
2017-10-15T13:27:06.009Z,23.70
2017-10-15T13:29:36.803Z,23.70
2017-10-15T13:32:06.736Z,23.50
2017-10-15T13:34:35.682Z,23.50
2017-10-15T13:37:04.796Z,23.50
2017-10-15T13:39:34.157Z,23.50
2017-10-15T13:42:04.000Z,23.60
2017-10-15T13:44:33.068Z,23.50
2017-10-15T13:47:02.824Z,23.50
2017-10-15T13:49:31.817Z,23.40
2017-10-15T13:52:01.739Z,23.30
2017-10-15T13:54:30.955Z,23.20
2017-10-15T13:56:59.862Z,23.10
2017-10-15T13:59:29.580Z,23.00
2017-10-15T14:01:59.217Z,23.00
2017-10-15T14:04:28.042Z,23.00
2017-10-15T14:06:56.968Z,23.00
2017-10-15T14:09:26.000Z,23.10
2017-10-15T14:11:55.064Z,23.10
2017-10-15T14:14:24.030Z,23.10
2017-10-15T14:16:53.803Z,23.20
2017-10-15T14:19:22.860Z,23.10
2017-10-15T14:21:53.223Z,23.20
2017-10-15T14:24:22.377Z,23.20
2017-10-15T14:26:51.454Z,23.20
2017-10-15T14:29:21.314Z,23.20
2017-10-15T14:31:50.307Z,23.20
2017-10-15T14:34:19.465Z,23.20
2017-10-15T14:36:48.487Z,23.10
2017-10-15T14:39:17.405Z,23.10
2017-10-15T14:41:46.666Z,23.10
2017-10-15T14:44:15.747Z,23.10
2017-10-15T14:46:44.692Z,23.10
2017-10-15T14:49:14.559Z,23.10
2017-10-15T14:51:43.626Z,23.10
2017-10-15T14:54:13.643Z,22.90
2017-10-15T14:56:43.343Z,22.90
2017-10-15T14:59:13.165Z,22.80
2017-10-15T15:01:42.286Z,22.80
2017-10-15T15:04:11.415Z,22.80
2017-10-15T15:06:41.041Z,22.80
2017-10-15T15:09:10.169Z,22.80
2017-10-15T15:11:39.017Z,23.00
2017-10-15T15:14:08.141Z,23.20
2017-10-15T15:16:38.017Z,23.10
2017-10-15T15:19:07.292Z,23.10
2017-10-15T15:21:36.389Z,23.00
2017-10-15T15:24:05.900Z,22.90
2017-10-15T15:26:35.307Z,22.70
2017-10-15T15:29:04.355Z,22.60
2017-10-15T15:31:33.734Z,22.50
2017-10-15T15:34:03.681Z,22.30
2017-10-15T15:36:33.035Z,22.30
2017-10-15T15:39:02.430Z,22.20
2017-10-15T15:41:31.588Z,22.10
2017-10-15T15:44:01.718Z,22.00
2017-10-15T15:46:31.201Z,22.00
2017-10-15T15:49:01.154Z,21.90
2017-10-15T15:51:30.148Z,21.90
2017-10-15T15:53:58.959Z,21.80
2017-10-15T15:56:28.596Z,21.70
2017-10-15T15:58:57.777Z,21.70
2017-10-15T16:01:27.541Z,21.60
2017-10-15T16:03:57.335Z,21.60
2017-10-15T16:06:26.979Z,21.60
2017-10-15T16:08:56.201Z,21.50
2017-10-15T16:11:26.114Z,21.40
2017-10-15T16:13:56.089Z,21.30
2017-10-15T16:16:24.986Z,21.30
2017-10-15T16:18:54.483Z,21.20
2017-10-15T16:21:23.495Z,21.20
2017-10-15T16:23:52.380Z,21.10
2017-10-15T16:26:23.231Z,21.00
2017-10-15T16:28:54.120Z,21.00
2017-10-15T16:31:24.587Z,20.90
2017-10-15T16:33:54.403Z,20.90
2017-10-15T16:36:23.339Z,20.80
2017-10-15T16:38:52.258Z,20.80
2017-10-15T16:41:21.076Z,20.70
2017-10-15T16:43:51.004Z,20.60
2017-10-15T16:46:19.819Z,20.60
2017-10-15T16:48:49.060Z,20.50
2017-10-15T16:51:18.297Z,20.50
2017-10-15T16:53:47.402Z,20.50
2017-10-15T16:56:16.328Z,20.50
2017-10-15T16:58:46.355Z,20.40
2017-10-15T17:01:15.901Z,20.30
2017-10-15T17:03:44.857Z,20.20
2017-10-15T17:06:14.245Z,20.20
2017-10-15T17:08:43.481Z,20.10
2017-10-15T17:11:12.773Z,20.10
2017-10-15T17:13:42.572Z,19.90
2017-10-15T17:16:11.588Z,19.90
2017-10-15T17:18:40.573Z,19.90
2017-10-15T17:21:09.841Z,19.80
2017-10-15T17:23:39.158Z,19.80
2017-10-15T17:26:08.488Z,19.80
2017-10-15T17:28:37.626Z,19.70
2017-10-15T17:31:06.718Z,19.70
2017-10-15T17:33:36.132Z,19.70
2017-10-15T17:36:05.319Z,19.60
2017-10-15T17:38:34.256Z,19.50
2017-10-15T17:41:03.256Z,19.50
2017-10-15T17:43:32.227Z,19.50
2017-10-15T17:46:01.375Z,19.40
2017-10-15T17:48:30.452Z,19.30
2017-10-15T17:50:59.585Z,19.20
2017-10-15T17:53:28.870Z,19.20
2017-10-15T17:55:58.084Z,19.10
2017-10-15T17:58:27.360Z,19.10
2017-10-15T18:00:57.150Z,19.10
2017-10-15T18:03:27.794Z,19.00
2017-10-15T18:05:57.193Z,18.90
2017-10-15T18:08:26.749Z,18.80
2017-10-15T18:10:57.048Z,18.70
2017-10-15T18:13:26.410Z,18.70
2017-10-15T18:15:56.414Z,18.70
2017-10-15T18:18:25.566Z,18.60
2017-10-15T18:20:55.467Z,18.50
2017-10-15T18:23:25.327Z,18.50
2017-10-15T18:25:54.638Z,18.40
2017-10-15T18:28:23.893Z,18.40
2017-10-15T18:30:53.232Z,18.40
2017-10-15T18:33:23.345Z,18.30
2017-10-15T18:35:52.789Z,18.20
2017-10-15T18:38:21.990Z,18.20
2017-10-15T18:40:51.118Z,18.10
2017-10-15T18:43:20.720Z,18.10
2017-10-15T18:45:52.654Z,18.00
2017-10-15T18:48:23.474Z,17.90
2017-10-15T18:50:53.233Z,17.80
2017-10-15T18:53:23.596Z,17.80
2017-10-15T18:55:53.799Z,17.70
2017-10-15T18:58:24.171Z,17.60
2017-10-15T19:00:55.670Z,17.50
2017-10-15T19:03:25.628Z,17.50
2017-10-15T19:05:57.754Z,17.40
2017-10-15T19:08:29.584Z,17.40
2017-10-15T19:10:59.345Z,17.40
2017-10-15T19:13:30.481Z,17.30
2017-10-15T19:16:00.091Z,17.30
2017-10-15T19:18:29.797Z,17.20
2017-10-15T19:20:59.141Z,17.20
2017-10-15T19:23:28.544Z,17.10
2017-10-15T19:25:57.689Z,17.00
2017-10-15T19:28:27.169Z,17.00
2017-10-15T19:30:56.764Z,16.90
2017-10-15T19:33:26.087Z,16.80
2017-10-15T19:35:55.910Z,16.60
2017-10-15T19:38:25.616Z,16.70
2017-10-15T19:40:55.079Z,16.60
2017-10-15T19:43:26.062Z,16.60
2017-10-15T19:45:55.174Z,16.60
2017-10-15T19:48:24.753Z,16.60
2017-10-15T19:50:53.847Z,16.60
2017-10-15T19:53:23.010Z,16.50
2017-10-15T19:55:53.276Z,16.50
2017-10-15T19:58:22.467Z,16.40
2017-10-15T20:00:51.606Z,16.40
2017-10-15T20:03:20.801Z,16.40
2017-10-15T20:05:50.911Z,16.40
2017-10-15T20:08:20.759Z,16.30
2017-10-15T20:10:50.854Z,16.30
2017-10-15T20:13:21.000Z,16.30
2017-10-15T20:15:50.186Z,16.20
2017-10-15T20:18:20.241Z,16.20
2017-10-15T20:20:49.847Z,16.20
2017-10-15T20:23:19.084Z,16.20
2017-10-15T20:25:48.880Z,16.20
2017-10-15T20:28:19.264Z,16.20
2017-10-15T20:30:48.539Z,16.20
2017-10-15T20:33:18.523Z,16.20
2017-10-15T20:35:47.770Z,16.10
2017-10-15T20:38:17.088Z,16.10
2017-10-15T20:40:46.546Z,16.10
2017-10-15T20:43:21.493Z,16.10
2017-10-15T20:45:52.189Z,16.10
2017-10-15T20:48:21.215Z,16.00
2017-10-15T20:50:51.315Z,16.00
2017-10-15T20:53:20.610Z,16.00
2017-10-15T20:55:49.800Z,16.00
2017-10-15T20:58:19.172Z,16.00
2017-10-15T21:00:48.290Z,15.90
2017-10-15T21:03:17.406Z,15.90
2017-10-15T21:05:47.553Z,15.90
2017-10-15T21:08:17.094Z,15.80
2017-10-15T21:10:47.365Z,15.80
2017-10-15T21:13:18.398Z,15.80
2017-10-15T21:15:49.409Z,15.80
2017-10-15T21:18:19.486Z,15.70
2017-10-15T21:20:49.801Z,15.80
2017-10-15T21:23:19.576Z,15.60
2017-10-15T21:25:48.701Z,15.60
2017-10-15T21:28:19.182Z,15.60
2017-10-15T21:30:53.776Z,15.60
2017-10-15T21:33:23.694Z,15.60
2017-10-15T21:35:53.934Z,15.60
2017-10-15T21:38:22.786Z,15.60
2017-10-15T21:40:51.676Z,15.50
2017-10-15T21:43:20.743Z,15.50
2017-10-15T21:45:50.470Z,15.60
2017-10-15T21:48:19.260Z,15.60
2017-10-15T21:50:50.482Z,15.90
2017-10-15T21:53:20.172Z,16.00
2017-10-15T21:55:50.762Z,16.00
2017-10-15T21:58:20.240Z,15.90
2017-10-15T22:00:52.147Z,16.00
2017-10-15T22:03:22.150Z,16.00
2017-10-15T22:05:51.640Z,15.90
2017-10-15T22:08:20.689Z,15.90
2017-10-15T22:10:50.698Z,16.00
2017-10-15T22:13:20.484Z,16.10
2017-10-15T22:15:49.341Z,15.90
2017-10-15T22:18:22.439Z,15.90
2017-10-15T22:20:55.808Z,15.80
2017-10-15T22:23:24.705Z,15.80
2017-10-15T22:25:53.814Z,15.70
2017-10-15T22:28:22.880Z,15.80
2017-10-15T22:30:52.770Z,15.70
2017-10-15T22:33:22.182Z,15.70
2017-10-15T22:35:51.789Z,15.70
2017-10-15T22:38:21.368Z,15.60
2017-10-15T22:40:50.289Z,15.60
2017-10-15T22:43:19.920Z,15.50
2017-10-15T22:45:49.051Z,15.60
2017-10-15T22:48:17.857Z,15.60
2017-10-15T22:50:46.816Z,15.60
2017-10-15T22:53:15.675Z,15.50
2017-10-15T22:55:44.790Z,15.40
2017-10-15T22:58:13.758Z,15.40
2017-10-15T23:00:43.521Z,15.20
2017-10-15T23:03:12.642Z,15.20
2017-10-15T23:05:42.502Z,15.10
2017-10-15T23:08:11.806Z,15.00
2017-10-15T23:10:40.998Z,15.00
2017-10-15T23:13:09.958Z,15.00
2017-10-15T23:15:39.990Z,15.00
2017-10-15T23:18:08.913Z,15.00
2017-10-15T23:20:37.719Z,14.90
2017-10-15T23:23:08.546Z,14.80
2017-10-15T23:25:37.549Z,14.80
2017-10-15T23:28:07.023Z,14.80
2017-10-15T23:30:36.113Z,14.80
2017-10-15T23:33:05.317Z,14.80
2017-10-15T23:35:34.616Z,14.70
2017-10-15T23:38:03.416Z,14.70
2017-10-15T23:40:32.354Z,14.70
2017-10-15T23:43:01.500Z,14.70
2017-10-15T23:45:30.390Z,14.60
2017-10-15T23:47:59.694Z,14.60
2017-10-15T23:50:28.511Z,14.60
2017-10-15T23:52:58.095Z,14.60
2017-10-15T23:55:26.991Z,14.60
2017-10-15T23:57:55.862Z,14.60
